createdAt,value
2023-04-17T00:03:20.645Z,7.27
2023-04-17T00:08:41.430Z,7.22
2023-04-17T00:14:02.209Z,7.22
2023-04-17T00:19:23.091Z,7.22
2023-04-17T00:24:43.741Z,7.13
2023-04-17T00:30:05.105Z,7.05
2023-04-17T00:35:25.809Z,7.04
2023-04-17T00:40:46.576Z,6.97
2023-04-17T00:46:08.208Z,7.10
2023-04-17T00:51:29.029Z,7.16
2023-04-17T00:56:51.693Z,7.25
2023-04-17T01:02:13.148Z,7.14
2023-04-17T01:07:33.939Z,7.10
2023-04-17T01:13:05.070Z,7.09
2023-04-17T01:18:27.044Z,7.16
2023-04-17T01:23:52.263Z,7.12
2023-04-17T01:29:14.335Z,7.07
2023-04-17T01:34:37.396Z,6.94
2023-04-17T01:39:59.535Z,6.80
2023-04-17T01:45:21.270Z,6.86
2023-04-17T01:50:42.265Z,6.90
2023-04-17T01:56:02.962Z,6.82
2023-04-17T02:01:24.419Z,6.71
2023-04-17T02:06:45.907Z,6.62
2023-04-17T02:12:06.947Z,6.61
2023-04-17T02:17:28.041Z,6.62
2023-04-17T02:22:48.623Z,6.72
2023-04-17T02:28:09.450Z,6.74
2023-04-17T02:33:30.010Z,6.88
2023-04-17T02:38:51.844Z,6.94
2023-04-17T02:44:12.580Z,7.01
2023-04-17T02:49:33.271Z,7.00
2023-04-17T02:54:54.959Z,7.00
2023-04-17T03:00:16.394Z,6.80
2023-04-17T03:05:37.241Z,6.68
2023-04-17T03:10:57.950Z,6.77
2023-04-17T03:16:18.723Z,6.83
2023-04-17T03:21:40.416Z,6.73
2023-04-17T03:27:02.332Z,6.69
2023-04-17T03:32:30.966Z,6.77
2023-04-17T03:37:51.678Z,6.76
2023-04-17T03:43:12.970Z,6.88
2023-04-17T03:48:33.713Z,6.95
2023-04-17T03:53:54.410Z,6.77
2023-04-17T03:59:15.054Z,6.71
2023-04-17T04:04:38.949Z,6.76
2023-04-17T04:10:04.758Z,6.76
2023-04-17T04:15:25.926Z,6.84
2023-04-17T04:20:51.144Z,6.87
2023-04-17T04:26:21.726Z,6.94
2023-04-17T04:31:51.044Z,6.95
2023-04-17T04:37:15.724Z,6.99
2023-04-17T04:42:42.290Z,6.97
2023-04-17T04:48:12.411Z,7.06
2023-04-17T04:53:33.646Z,7.03
2023-04-17T04:58:56.356Z,7.10
2023-04-17T05:04:17.291Z,7.30
2023-04-17T05:09:38.473Z,7.53
2023-04-17T05:15:00.907Z,7.53
2023-04-17T05:20:22.547Z,7.52
2023-04-17T05:25:48.988Z,7.50
2023-04-17T05:31:10.313Z,7.65
2023-04-17T05:36:35.439Z,7.67
2023-04-17T05:41:58.928Z,7.70
2023-04-17T05:47:19.728Z,7.70
2023-04-17T05:52:40.673Z,7.78
2023-04-17T05:58:20.403Z,7.82
2023-04-17T06:03:44.815Z,7.81
2023-04-17T06:09:11.979Z,7.82
2023-04-17T06:14:33.351Z,7.80
2023-04-17T06:19:58.396Z,7.92
2023-04-17T06:25:20.637Z,7.94
2023-04-17T06:30:41.435Z,7.97
2023-04-17T06:36:03.223Z,8.06
2023-04-17T06:41:32.448Z,8.14
2023-04-17T06:46:54.860Z,8.13
2023-04-17T06:52:15.584Z,8.03
2023-04-17T06:57:36.879Z,8.01
2023-04-17T07:02:57.770Z,8.05
2023-04-17T07:08:22.382Z,8.07
2023-04-17T07:13:43.370Z,8.19
2023-04-17T07:19:04.144Z,8.29
2023-04-17T07:24:24.786Z,8.32
2023-04-17T07:29:47.640Z,8.28
2023-04-17T07:35:08.676Z,8.41
2023-04-17T07:40:30.381Z,8.44
2023-04-17T07:45:51.098Z,8.51
2023-04-17T07:51:11.724Z,8.63
2023-04-17T07:56:34.667Z,8.67
2023-04-17T08:01:55.442Z,8.73
2023-04-17T08:07:18.316Z,8.76
2023-04-17T08:12:39.698Z,8.87
2023-04-17T08:18:00.727Z,9.06
2023-04-17T08:23:21.620Z,9.26
2023-04-17T08:28:42.413Z,9.46
2023-04-17T08:34:13.628Z,9.62
2023-04-17T08:39:35.785Z,9.85
2023-04-17T08:45:01.125Z,10.16
2023-04-17T08:50:22.287Z,10.16
2023-04-17T08:55:44.307Z,10.13
2023-04-17T09:01:10.753Z,9.98
2023-04-17T09:06:50.044Z,9.89
2023-04-17T09:12:11.251Z,9.89
2023-04-17T09:17:35.040Z,9.98
2023-04-17T09:23:01.344Z,10.11
2023-04-17T09:28:22.215Z,10.47
2023-04-17T09:34:04.470Z,10.78
2023-04-17T09:39:25.649Z,10.80
2023-04-17T09:44:47.156Z,10.91
2023-04-17T09:50:09.238Z,10.87
2023-04-17T09:55:31.477Z,10.76
2023-04-17T10:00:52.594Z,10.59
2023-04-17T10:06:14.121Z,10.60
2023-04-17T10:11:37.967Z,10.65
2023-04-17T10:16:58.992Z,10.74
2023-04-17T10:22:19.834Z,10.97
2023-04-17T10:27:40.550Z,11.32
2023-04-17T10:33:13.426Z,11.35
2023-04-17T10:38:36.207Z,11.44
2023-04-17T10:43:57.484Z,11.71
2023-04-17T10:49:18.250Z,12.00
2023-04-17T10:55:18.049Z,12.01
2023-04-17T11:00:50.867Z,11.89
2023-04-17T11:06:13.366Z,11.89
2023-04-17T11:11:44.041Z,12.04
2023-04-17T11:17:05.683Z,11.97
2023-04-17T11:22:28.358Z,11.97
2023-04-17T11:27:55.432Z,11.95
2023-04-17T11:33:16.622Z,11.89
2023-04-17T11:38:46.813Z,11.76
2023-04-17T11:44:13.066Z,11.83
2023-04-17T11:49:38.788Z,11.85
2023-04-17T11:54:59.497Z,11.91
2023-04-17T12:00:26.107Z,12.10
2023-04-17T12:05:59.523Z,12.21
2023-04-17T12:11:26.328Z,12.37
2023-04-17T12:16:51.821Z,12.60
2023-04-17T12:22:12.656Z,12.74
2023-04-17T12:27:36.674Z,12.73
2023-04-17T12:32:58.851Z,12.65
2023-04-17T12:38:19.581Z,12.65
2023-04-17T12:43:40.374Z,12.70
2023-04-17T12:49:01.051Z,12.72
2023-04-17T12:54:21.725Z,12.72
2023-04-17T12:59:42.448Z,12.74
2023-04-17T13:05:05.978Z,12.77
2023-04-17T13:10:27.076Z,12.74
2023-04-17T13:15:48.809Z,12.77
2023-04-17T13:21:09.835Z,12.73
2023-04-17T13:26:30.716Z,12.62
2023-04-17T13:31:51.648Z,12.56
2023-04-17T13:37:14.594Z,12.44
2023-04-17T13:42:35.738Z,12.62
2023-04-17T13:47:56.464Z,12.58
2023-04-17T13:53:17.289Z,12.56
2023-04-17T13:58:38.163Z,12.83
2023-04-17T14:04:02.184Z,12.93
2023-04-17T14:09:23.004Z,12.90
2023-04-17T14:14:43.768Z,12.60
2023-04-17T14:20:05.325Z,11.73
2023-04-17T14:25:26.145Z,11.35
2023-04-17T14:30:47.704Z,10.90
2023-04-17T14:36:08.912Z,10.64
2023-04-17T14:41:34.336Z,10.63
2023-04-17T14:46:57.076Z,10.41
2023-04-17T14:52:17.919Z,10.26
2023-04-17T14:57:39.460Z,10.14
2023-04-17T15:03:00.566Z,10.03
2023-04-17T15:08:21.659Z,10.11
2023-04-17T15:13:42.487Z,10.17
2023-04-17T15:19:03.453Z,10.21
2023-04-17T15:24:24.150Z,10.25
2023-04-17T15:29:46.067Z,10.24
2023-04-17T15:35:07.648Z,10.25
2023-04-17T15:40:28.578Z,10.21
2023-04-17T15:45:49.751Z,10.16
2023-04-17T15:51:10.631Z,10.14
2023-04-17T15:56:31.786Z,10.16
2023-04-17T16:01:53.550Z,10.11
2023-04-17T16:07:16.580Z,10.00
2023-04-17T16:12:41.430Z,9.91
2023-04-17T16:18:02.418Z,9.78
2023-04-17T16:23:23.064Z,9.59
2023-04-17T16:28:45.798Z,9.42
2023-04-17T16:34:06.459Z,9.27
2023-04-17T16:39:27.460Z,9.21
2023-04-17T16:44:48.467Z,9.10
2023-04-17T16:50:11.672Z,9.00
2023-04-17T16:55:32.391Z,8.89
2023-04-17T17:00:53.154Z,8.85
2023-04-17T17:06:13.838Z,8.84
2023-04-17T17:11:34.454Z,8.88
2023-04-17T17:16:55.278Z,8.80
2023-04-17T17:22:16.047Z,8.79
2023-04-17T17:27:37.120Z,8.76
2023-04-17T17:32:57.851Z,8.61
2023-04-17T17:38:18.498Z,8.53
2023-04-17T17:43:39.864Z,8.46
2023-04-17T17:49:00.608Z,8.43
2023-04-17T17:54:21.386Z,8.34
2023-04-17T17:59:42.433Z,8.24
2023-04-17T18:05:03.353Z,8.16
2023-04-17T18:10:23.997Z,8.10
2023-04-17T18:15:44.920Z,8.10
2023-04-17T18:21:07.195Z,8.07
2023-04-17T18:26:27.931Z,7.98
2023-04-17T18:31:51.161Z,7.88
2023-04-17T18:37:12.136Z,7.84
2023-04-17T18:42:32.793Z,7.81
2023-04-17T18:47:53.644Z,7.77
2023-04-17T18:53:14.624Z,7.77
2023-04-17T18:58:37.667Z,7.73
2023-04-17T19:03:58.585Z,7.80
2023-04-17T19:09:19.631Z,7.74
2023-04-17T19:14:41.212Z,7.77
2023-04-17T19:20:02.139Z,7.63
2023-04-17T19:25:22.678Z,7.57
2023-04-17T19:30:43.477Z,7.58
2023-04-17T19:36:04.367Z,7.62
2023-04-17T19:41:26.338Z,7.58
2023-04-17T19:46:47.473Z,7.57
2023-04-17T19:52:08.413Z,7.61
2023-04-17T19:57:28.973Z,7.61
2023-04-17T20:02:49.921Z,7.52
2023-04-17T20:08:10.917Z,7.52
2023-04-17T20:13:31.964Z,7.47
2023-04-17T20:18:53.105Z,7.47
2023-04-17T20:24:15.787Z,7.49
2023-04-17T20:29:36.576Z,7.45
2023-04-17T20:34:57.475Z,7.43
2023-04-17T20:40:18.587Z,7.41
2023-04-17T20:45:39.788Z,7.42
2023-04-17T20:51:05.969Z,7.42
2023-04-17T20:56:26.719Z,7.50
2023-04-17T21:01:47.505Z,7.40
2023-04-17T21:07:08.250Z,7.43
2023-04-17T21:12:29.033Z,7.41
2023-04-17T21:17:49.696Z,7.48
2023-04-17T21:23:10.982Z,7.40
2023-04-17T21:28:31.971Z,7.43
2023-04-17T21:33:52.610Z,7.50
2023-04-17T21:39:13.397Z,7.45
2023-04-17T21:44:34.022Z,7.36
2023-04-17T21:49:54.684Z,7.38
2023-04-17T21:55:15.670Z,7.32
2023-04-17T22:00:36.589Z,7.26
2023-04-17T22:05:57.508Z,7.31
2023-04-17T22:11:18.379Z,7.30
2023-04-17T22:16:39.481Z,7.23
2023-04-17T22:22:56.775Z,7.24
2023-04-17T22:29:32.380Z,7.21
2023-04-17T22:36:08.465Z,7.23
2023-04-17T22:42:44.118Z,7.19
2023-04-17T22:48:24.673Z,7.13
2023-04-17T22:53:46.639Z,7.11
2023-04-17T22:59:07.515Z,7.16
2023-04-17T23:04:28.158Z,7.15
2023-04-17T23:09:48.764Z,7.10
2023-04-17T23:15:09.952Z,7.07
2023-04-17T23:20:30.739Z,6.99
2023-04-17T23:25:52.142Z,6.95
2023-04-17T23:31:12.792Z,6.95
2023-04-17T23:36:33.290Z,6.89
2023-04-17T23:41:54.839Z,6.89
2023-04-17T23:47:16.118Z,6.84
2023-04-17T23:52:37.077Z,6.86
2023-04-17T23:57:57.994Z,6.87
